Time;durP1;ratioP1;P1;durP2;ratioP2;P2;SDS_P1;SDS_P2;PMS_P1;PMS_P2;Temp;Humidity;BMP_temperature;BMP_pressure;BME280_temperature;BME280_humidity;BME280_pressure;Samples;Min_cycle;Max_cycle;Signal;HPM_P1;HPM_P2
2023/06/25 00:00:55;;;;;;;6.15;3.67;;;589.50;2432.00;;;;;;5082465;28;20103;-73
2023/06/25 00:03:21;;;;;;;5.60;3.50;;;589.40;2432.00;;;;;;5081953;28;20054;-73
2023/06/25 00:05:47;;;;;;;7.07;4.00;;;589.40;2432.00;;;;;;5082891;28;20493;-78
2023/06/25 00:08:12;;;;;;;7.57;4.00;;;589.50;2432.00;;;;;;5073586;28;20028;-74
2023/06/25 00:10:39;;;;;;;6.43;3.80;;;589.50;2432.00;;;;;;5073543;28;20039;-75
2023/06/25 00:13:05;;;;;;;6.57;3.88;;;589.50;2432.00;;;;;;5087450;28;20104;-74
2023/06/25 00:15:31;;;;;;;6.60;4.13;;;589.50;2432.00;;;;;;5093849;28;20453;-76
2023/06/25 00:17:56;;;;;;;5.70;3.75;;;589.50;2432.00;;;;;;5084319;28;20390;-75
2023/06/25 00:20:25;;;;;;;7.05;3.67;;;589.50;2432.00;;;;;;5073216;28;20033;-74
2023/06/25 00:22:51;;;;;;;5.97;4.38;;;589.50;2432.00;;;;;;5088878;28;20382;-75
2023/06/25 00:25:17;;;;;;;6.57;4.25;;;589.50;2432.00;;;;;;5073143;28;20041;-75
2023/06/25 00:27:47;;;;;;;6.18;3.95;;;589.60;2432.00;;;;;;5073419;28;20162;-74
2023/06/25 00:30:16;;;;;;;6.30;3.80;;;589.50;2432.00;;;;;;5073156;28;20067;-73
2023/06/25 00:32:43;;;;;;;5.07;3.95;;;589.60;2432.00;;;;;;5073146;28;20056;-74
2023/06/25 00:35:10;;;;;;;6.20;3.78;;;589.60;2432.00;;;;;;5072972;28;20017;-74
2023/06/25 00:37:38;;;;;;;7.95;4.15;;;589.60;2432.00;;;;;;5073191;28;20397;-76
2023/06/25 00:40:06;;;;;;;6.90;3.40;;;589.60;2432.00;;;;;;5073267;28;20103;-74
2023/06/25 00:42:43;;;;;;;5.07;3.50;;;589.60;2432.00;;;;;;5073141;28;20059;-73
2023/06/25 00:45:10;;;;;;;5.65;3.55;;;589.60;2432.00;;;;;;5073204;28;20101;-76
2023/06/25 00:47:37;;;;;;;6.00;3.67;;;589.60;2432.00;;;;;;5073035;28;20032;-74
2023/06/25 00:50:04;;;;;;;6.63;3.83;;;589.60;2432.00;;;;;;5073128;28;20035;-74
2023/06/25 00:52:30;;;;;;;6.57;4.43;;;589.60;2432.00;;;;;;5072925;28;20501;-73
2023/06/25 00:54:55;;;;;;;8.75;4.07;;;589.60;2432.00;;;;;;5073057;28;20044;-75
2023/06/25 00:57:21;;;;;;;5.97;4.05;;;589.50;2432.00;;;;;;5072860;28;20386;-73
2023/06/25 00:59:48;;;;;;;6.97;4.10;;;589.40;2432.00;;;;;;5072948;28;20067;-74
2023/06/25 01:02:23;;;;;;;7.80;4.07;;;589.40;2432.00;;;;;;5072749;28;20067;-77
2023/06/25 01:05:23;;;;;;;8.05;3.53;;;589.40;2432.00;;;;;;5072857;28;20039;-74
2023/06/25 01:07:52;;;;;;;5.70;4.13;;;589.40;2432.00;;;;;;5064374;28;20067;-73
2023/06/25 01:10:18;;;;;;;9.70;4.82;;;589.30;2432.00;;;;;;5072953;28;20013;-75
2023/06/25 01:12:43;;;;;;;7.05;3.80;;;589.50;2432.00;;;;;;5072720;28;20470;-74
2023/06/25 01:15:09;;;;;;;6.78;4.32;;;589.40;2432.00;;;;;;5072804;28;20107;-75
2023/06/25 01:17:36;;;;;;;5.85;4.03;;;589.30;2432.00;;;;;;5072566;28;20028;-76
2023/06/25 01:20:05;;;;;;;7.57;5.05;;;589.40;2432.00;;;;;;5072903;28;20060;-76
2023/06/25 01:22:32;;;;;;;7.93;4.50;;;589.70;2432.00;;;;;;5074513;28;20032;-74
2023/06/25 01:24:59;;;;;;;8.18;4.05;;;589.30;2432.00;;;;;;5063975;28;20166;-74
2023/06/25 01:27:25;;;;;;;5.47;4.60;;;589.30;2432.00;;;;;;5076596;28;20406;-74
2023/06/25 01:29:51;;;;;;;5.65;4.13;;;589.30;2432.00;;;;;;5076660;28;20017;-74
2023/06/25 01:32:18;;;;;;;8.80;4.78;;;589.30;2432.00;;;;;;5076322;28;20024;-75
2023/06/25 01:34:44;;;;;;;6.32;4.07;;;589.30;2432.00;;;;;;5076648;28;20109;-75
2023/06/25 01:37:11;;;;;;;6.88;4.45;;;589.30;2432.00;;;;;;5063121;28;20055;-75
2023/06/25 01:39:37;;;;;;;11.45;4.40;;;589.10;2432.00;;;;;;5076246;28;20035;-72
2023/06/25 01:42:04;;;;;;;5.30;3.97;;;589.10;2432.00;;;;;;5076433;28;20060;-74
2023/06/25 01:44:31;;;;;;;6.75;4.53;;;589.10;2432.00;;;;;;5076191;28;20020;-74
2023/06/25 01:46:58;;;;;;;6.53;4.25;;;589.10;2432.00;;;;;;5075947;28;20131;-73
2023/06/25 01:49:25;;;;;;;7.15;4.60;;;589.10;2432.00;;;;;;5076183;28;20025;-74
2023/06/25 01:51:51;;;;;;;6.47;4.43;;;589.00;2432.00;;;;;;5076318;28;20062;-76
2023/06/25 01:54:17;;;;;;;6.93;4.22;;;589.00;2432.00;;;;;;5075790;28;20032;-74
2023/06/25 01:56:43;;;;;;;6.10;4.45;;;589.10;2432.00;;;;;;5076182;28;20025;-76
2023/06/25 01:59:10;;;;;;;8.63;4.45;;;589.00;2432.00;;;;;;5076048;28;20074;-74
2023/06/25 02:01:36;;;;;;;6.75;4.72;;;589.10;2432.00;;;;;;5076086;28;20023;-74
2023/06/25 02:04:02;;;;;;;7.82;4.47;;;589.10;2432.00;;;;;;5075695;28;20024;-74
2023/06/25 02:06:27;;;;;;;6.05;4.35;;;589.10;2432.00;;;;;;5075810;28;20028;-74
2023/06/25 02:08:53;;;;;;;6.78;4.78;;;589.20;2432.00;;;;;;5075638;28;20082;-77
2023/06/25 02:11:19;;;;;;;8.23;4.72;;;589.20;2432.00;;;;;;5076065;28;20390;-75
2023/06/25 02:13:45;;;;;;;8.07;4.80;;;589.10;2432.00;;;;;;5075838;28;20028;-72
2023/06/25 02:16:10;;;;;;;8.23;4.63;;;589.20;2432.00;;;;;;5075789;28;20121;-73
2023/06/25 02:18:36;;;;;;;6.03;4.28;;;589.10;2432.00;;;;;;5062330;28;20540;-72
2023/06/25 02:21:02;;;;;;;5.70;4.07;;;589.10;2432.00;;;;;;5075759;28;20024;-72
2023/06/25 02:23:28;;;;;;;6.97;4.53;;;589.10;2432.00;;;;;;5075245;28;20402;-72
2023/06/25 02:25:54;;;;;;;6.97;4.75;;;589.10;2432.00;;;;;;5075560;28;20123;-72
2023/06/25 02:28:19;;;;;;;7.10;4.40;;;589.10;2432.00;;;;;;5075434;28;20020;-72
2023/06/25 02:30:45;;;;;;;9.00;4.07;;;589.00;2432.00;;;;;;5075520;28;20068;-73
2023/06/25 02:33:11;;;;;;;8.45;4.75;;;589.00;2432.00;;;;;;5075005;28;20016;-72
2023/06/25 02:35:37;;;;;;;6.05;4.40;;;588.90;2432.00;;;;;;5075128;28;20122;-71
2023/06/25 02:38:03;;;;;;;7.28;5.05;;;564.10;2432.00;;;;;;5075332;28;20048;-72
2023/06/25 02:40:29;;;;;;;9.43;5.07;;;588.80;2432.00;;;;;;5075280;28;20024;-73
2023/06/25 02:42:57;;;;;;;6.43;4.63;;;588.80;2432.00;;;;;;5075193;28;20074;-73
2023/06/25 02:45:23;;;;;;;7.05;4.82;;;588.80;2432.00;;;;;;5075308;28;20190;-73
2023/06/25 02:47:49;;;;;;;5.47;4.00;;;588.90;2432.00;;;;;;5075053;28;20115;-72
2023/06/25 02:50:16;;;;;;;7.05;5.05;;;588.90;2432.00;;;;;;5074947;28;20025;-72
2023/06/25 02:52:42;;;;;;;5.65;4.28;;;588.90;2432.00;;;;;;5075030;28;20462;-72
2023/06/25 02:55:09;;;;;;;7.95;4.70;;;588.80;2432.00;;;;;;5074854;28;20518;-71
2023/06/25 02:57:34;;;;;;;6.45;4.32;;;564.10;2432.00;;;;;;5074708;28;20037;-72
2023/06/25 03:00:00;;;;;;;8.65;4.60;;;564.10;2432.00;;;;;;5075214;28;20082;-80
2023/06/25 03:02:26;;;;;;;6.55;4.55;;;564.10;2432.00;;;;;;5074646;28;20162;-72
2023/06/25 03:04:52;;;;;;;6.07;4.32;;;564.10;2432.00;;;;;;5074688;28;20486;-72
2023/06/25 03:07:18;;;;;;;6.57;5.10;;;564.10;2432.00;;;;;;5074686;28;20032;-72
2023/06/25 03:09:44;;;;;;;10.13;4.68;;;588.80;2432.00;;;;;;5074725;28;20460;-72
2023/06/25 03:12:10;;;;;;;10.27;4.85;;;588.80;2432.00;;;;;;5074607;28;20099;-72
2023/06/25 03:14:37;;;;;;;6.75;4.95;;;564.10;2432.00;;;;;;5074691;28;20509;-75
2023/06/25 03:17:03;;;;;;;6.45;4.82;;;564.10;2432.00;;;;;;5074490;28;20035;-71
2023/06/25 03:19:30;;;;;;;5.55;4.38;;;564.00;2432.00;;;;;;5073147;28;20466;-71
2023/06/25 03:21:56;;;;;;;6.43;4.45;;;588.80;2432.00;;;;;;5074262;28;20028;-73
2023/06/25 03:24:22;;;;;;;6.68;5.18;;;564.00;2432.00;;;;;;5074479;28;20032;-73
2023/06/25 03:26:47;;;;;;;7.85;4.55;;;563.90;2432.00;;;;;;5074309;28;20032;-73
2023/06/25 03:29:13;;;;;;;6.05;4.32;;;564.00;2432.00;;;;;;5074507;28;20021;-72
2023/06/25 03:31:39;;;;;;;7.30;4.80;;;564.00;2432.00;;;;;;5074012;28;20103;-72
2023/06/25 03:34:04;;;;;;;6.30;4.70;;;564.00;2432.00;;;;;;5074043;28;20035;-73
2023/06/25 03:36:30;;;;;;;7.03;5.07;;;564.00;2432.00;;;;;;5074066;28;20050;-71
2023/06/25 03:38:57;;;;;;;7.35;5.72;;;564.00;2432.00;;;;;;5074333;28;20028;-72
2023/06/25 03:41:23;;;;;;;7.65;4.65;;;564.00;2432.00;;;;;;5074004;28;20120;-73
2023/06/25 03:43:48;;;;;;;6.80;4.88;;;563.90;2432.00;;;;;;5066602;28;20481;-72
2023/06/25 03:46:14;;;;;;;6.15;4.75;;;563.80;2432.00;;;;;;5067195;28;20040;-72
2023/06/25 03:48:43;;;;;;;6.30;4.55;;;563.90;2432.00;;;;;;5073942;28;20021;-73
2023/06/25 03:51:09;;;;;;;7.15;5.70;;;563.80;2432.00;;;;;;5073791;28;20107;-72
2023/06/25 03:53:38;;;;;;;6.28;4.93;;;563.70;2432.00;;;;;;5073757;28;20095;-73
2023/06/25 03:56:03;;;;;;;6.43;4.53;;;563.70;2432.00;;;;;;5073646;28;20560;-72
2023/06/25 03:58:29;;;;;;;10.77;5.65;;;563.70;2432.00;;;;;;5073925;28;20052;-72
2023/06/25 04:00:55;;;;;;;6.10;5.10;;;563.70;2432.00;;;;;;5073721;28;20029;-72
2023/06/25 04:03:20;;;;;;;7.22;5.07;;;563.70;2432.00;;;;;;5073655;28;20020;-72
2023/06/25 04:05:47;;;;;;;8.15;5.18;;;563.70;2432.00;;;;;;5073331;28;20470;-72
2023/06/25 04:08:13;;;;;;;8.50;5.28;;;563.60;2432.00;;;;;;5073640;28;20029;-72
2023/06/25 04:10:39;;;;;;;7.70;5.40;;;563.60;2432.00;;;;;;5073378;28;20351;-72
2023/06/25 04:13:05;;;;;;;8.45;5.72;;;563.60;2432.00;;;;;;5073620;28;20039;-72
2023/06/25 04:15:30;;;;;;;6.97;4.90;;;563.70;2432.00;;;;;;5073476;28;20020;-74
2023/06/25 04:17:56;;;;;;;7.53;4.85;;;563.70;2432.00;;;;;;5073486;28;20050;-72
2023/06/25 04:20:25;;;;;;;7.20;4.53;;;563.60;2432.00;;;;;;5073253;28;20359;-72
2023/06/25 04:22:50;;;;;;;5.78;4.63;;;563.70;2432.00;;;;;;5073362;28;20024;-74
2023/06/25 04:25:16;;;;;;;8.88;4.88;;;563.80;2432.00;;;;;;5073012;28;20036;-73
2023/06/25 04:27:42;;;;;;;8.10;4.93;;;563.80;2432.00;;;;;;5073755;28;20031;-72
2023/06/25 04:30:08;;;;;;;7.72;5.20;;;563.70;2432.00;;;;;;5060196;28;20035;-72
2023/06/25 04:32:34;;;;;;;6.72;5.20;;;563.70;2432.00;;;;;;5073634;28;20405;-79
2023/06/25 04:35:00;;;;;;;10.50;4.93;;;563.70;2432.00;;;;;;5073058;28;20028;-72
2023/06/25 04:37:26;;;;;;;9.23;5.10;;;563.80;2432.00;;;;;;5073387;28;20024;-72
2023/06/25 04:39:51;;;;;;;6.70;5.05;;;563.90;2432.00;;;;;;5073301;28;20070;-72
2023/06/25 04:42:17;;;;;;;6.95;5.05;;;563.90;2432.00;;;;;;5073219;28;20062;-72
2023/06/25 04:44:43;;;;;;;7.68;4.53;;;563.90;2432.00;;;;;;5072956;28;20575;-72
2023/06/25 04:47:09;;;;;;;7.25;5.60;;;564.00;2432.00;;;;;;5073267;28;20029;-84
2023/06/25 04:49:34;;;;;;;9.23;5.90;;;564.00;2432.00;;;;;;5073012;28;20543;-72
2023/06/25 04:52:00;;;;;;;7.95;5.60;;;563.90;2432.00;;;;;;5073227;28;20540;-72
2023/06/25 04:54:26;;;;;;;9.50;4.72;;;563.90;2432.00;;;;;;5072587;28;20497;-72
2023/06/25 04:56:51;;;;;;;7.07;5.18;;;563.90;2432.00;;;;;;5072641;28;20025;-72
2023/06/25 04:59:17;;;;;;;8.65;5.10;;;563.90;2432.00;;;;;;5072943;28;20021;-72
2023/06/25 05:01:43;;;;;;;7.28;5.20;;;564.00;2432.00;;;;;;5073076;28;20020;-76
2023/06/25 05:04:08;;;;;;;7.82;5.50;;;563.90;2432.00;;;;;;5072912;28;20103;-72
2023/06/25 05:06:34;;;;;;;9.38;5.68;;;563.80;2432.00;;;;;;5072968;28;20032;-72
2023/06/25 05:09:00;;;;;;;11.23;5.72;;;563.80;2432.00;;;;;;5072980;28;20025;-85
2023/06/25 05:11:25;;;;;;;8.07;5.85;;;563.90;2432.00;;;;;;5072979;28;20162;-72
2023/06/25 05:13:51;;;;;;;10.20;6.20;;;563.90;2432.00;;;;;;5072567;28;20378;-74
2023/06/25 05:16:17;;;;;;;8.65;5.90;;;563.80;2432.00;;;;;;5072927;28;20024;-73
2023/06/25 05:18:43;;;;;;;9.15;5.72;;;563.80;2432.00;;;;;;5072699;28;20074;-73
2023/06/25 05:21:08;;;;;;;9.55;5.65;;;563.90;2432.00;;;;;;5073921;28;20032;-73
2023/06/25 05:23:43;;;;;;;7.30;5.28;;;563.90;2432.00;;;;;;5077726;28;20359;-75
2023/06/25 05:26:08;;;;;;;8.45;5.80;;;563.90;2432.00;;;;;;5075047;28;20123;-72
2023/06/25 05:28:34;;;;;;;9.75;6.28;;;564.00;2432.00;;;;;;5075153;28;20142;-77
2023/06/25 05:30:59;;;;;;;8.13;5.70;;;563.80;2432.00;;;;;;5074320;28;20024;-74
2023/06/25 05:33:25;;;;;;;9.70;6.22;;;563.90;2432.00;;;;;;5073607;28;20561;-73
2023/06/25 05:35:51;;;;;;;8.95;5.60;;;563.80;2432.00;;;;;;5077767;28;20033;-73
2023/06/25 05:38:16;;;;;;;8.80;5.63;;;563.80;2432.00;;;;;;5074986;28;20107;-76
2023/06/25 05:40:43;;;;;;;10.57;6.65;;;563.90;2432.00;;;;;;5073104;28;20356;-73
2023/06/25 05:43:09;;;;;;;8.35;6.45;;;563.80;2432.00;;;;;;5090478;28;20031;-74
2023/06/25 05:45:35;;;;;;;8.90;6.03;;;563.70;2432.00;;;;;;5077195;28;20033;-73
2023/06/25 05:48:00;;;;;;;8.48;5.90;;;563.70;2432.00;;;;;;5074683;28;20023;-75
2023/06/25 05:50:26;;;;;;;9.18;5.65;;;563.90;2432.00;;;;;;5081672;28;20028;-73
2023/06/25 05:52:52;;;;;;;9.25;6.47;;;564.10;2432.00;;;;;;5078712;28;20463;-76
2023/06/25 05:55:18;;;;;;;9.05;6.53;;;588.90;2432.00;;;;;;5076793;28;20048;-73
2023/06/25 05:57:44;;;;;;;8.98;6.05;;;589.00;2432.00;;;;;;5076617;28;20032;-73
2023/06/25 06:00:10;;;;;;;10.23;7.18;;;588.90;2432.00;;;;;;5078553;28;20035;-74
2023/06/25 06:02:35;;;;;;;8.50;6.32;;;589.00;2432.00;;;;;;5084453;28;20028;-74
2023/06/25 06:05:01;;;;;;;10.57;6.22;;;564.10;2432.00;;;;;;5079961;28;20562;-75
2023/06/25 06:07:27;;;;;;;7.88;5.90;;;564.00;2432.00;;;;;;5076615;28;20036;-74
2023/06/25 06:09:52;;;;;;;11.75;6.97;;;564.10;2432.00;;;;;;5083480;28;20046;-74
2023/06/25 06:12:18;;;;;;;11.75;6.97;;;564.10;2432.00;;;;;;5090973;28;20046;-74
2023/06/25 06:14:44;;;;;;;9.57;6.60;;;564.10;2432.00;;;;;;5077458;28;20025;-73
2023/06/25 06:17:09;;;;;;;9.88;6.15;;;588.80;2432.00;;;;;;5082319;28;20025;-76
2023/06/25 06:19:35;;;;;;;7.57;6.13;;;564.10;2432.00;;;;;;5074766;28;20021;-73
2023/06/25 06:22:01;;;;;;;10.23;5.80;;;564.10;2432.00;;;;;;5077944;28;20028;-75
2023/06/25 06:24:27;;;;;;;12.65;6.70;;;588.90;2432.00;;;;;;5066673;28;20124;-74
2023/06/25 06:26:53;;;;;;;9.48;6.60;;;589.10;2432.00;;;;;;5084663;28;20049;-73
2023/06/25 06:29:19;;;;;;;9.10;7.00;;;589.20;2432.00;;;;;;5078070;28;20490;-75
2023/06/25 06:31:45;;;;;;;8.82;6.78;;;589.30;2432.00;;;;;;5081989;28;20020;-75
2023/06/25 06:34:11;;;;;;;11.40;6.85;;;589.50;2432.00;;;;;;5077897;28;20024;-73
2023/06/25 06:36:36;;;;;;;9.07;6.70;;;589.60;2432.00;;;;;;5077905;28;20021;-75
2023/06/25 06:39:02;;;;;;;9.73;6.43;;;589.50;2432.00;;;;;;5081511;28;20062;-74
2023/06/25 06:41:28;;;;;;;11.88;6.95;;;589.70;2432.00;;;;;;5078399;28;20024;-74
2023/06/25 06:43:57;;;;;;;12.25;6.60;;;614.40;2432.00;;;;;;5080969;28;20058;-74
2023/06/25 06:46:23;;;;;;;9.65;6.47;;;614.50;2432.00;;;;;;5080897;28;20028;-73
2023/06/25 06:48:48;;;;;;;10.43;6.82;;;614.50;2432.00;;;;;;5076209;28;20081;-73
2023/06/25 06:51:14;;;;;;;9.45;6.50;;;614.50;2432.00;;;;;;5076089;28;20036;-73
2023/06/25 06:53:40;;;;;;;10.85;7.03;;;614.70;2432.00;;;;;;5081597;28;20050;-73
2023/06/25 06:56:06;;;;;;;11.80;7.45;;;614.50;2432.00;;;;;;5081701;28;20132;-73
2023/06/25 06:58:32;;;;;;;8.60;6.28;;;614.60;2432.00;;;;;;5080381;28;20032;-73
2023/06/25 07:00:57;;;;;;;8.63;6.95;;;614.60;2432.00;;;;;;5084997;28;20489;-72
2023/06/25 07:03:23;;;;;;;9.88;7.28;;;614.40;2432.00;;;;;;5081468;28;20043;-72
2023/06/25 07:05:49;;;;;;;8.57;6.30;;;614.40;2432.00;;;;;;5085350;28;21759;-72
2023/06/25 07:08:15;;;;;;;9.32;7.00;;;614.50;2432.00;;;;;;5081730;28;20028;-72
2023/06/25 07:10:40;;;;;;;9.85;6.57;;;614.50;2432.00;;;;;;5080537;28;20020;-72
2023/06/25 07:13:06;;;;;;;7.88;6.50;;;614.60;2432.00;;;;;;5083502;28;20474;-74
2023/06/25 07:15:32;;;;;;;10.30;6.88;;;614.70;2432.00;;;;;;5076802;28;20434;-72
2023/06/25 07:17:57;;;;;;;8.55;6.70;;;614.80;2432.00;;;;;;5083552;28;20389;-72
2023/06/25 07:20:23;;;;;;;11.63;6.57;;;614.90;2432.00;;;;;;5068263;28;20029;-73
2023/06/25 07:22:49;;;;;;;9.35;6.70;;;614.90;2432.00;;;;;;5082882;28;20031;-72
2023/06/25 07:25:14;;;;;;;10.93;7.15;;;614.90;2432.00;;;;;;5081777;28;20511;-72
2023/06/25 07:27:40;;;;;;;11.70;7.95;;;614.90;2432.00;;;;;;5078502;28;20032;-72
2023/06/25 07:30:06;;;;;;;13.85;8.50;;;615.00;2432.00;;;;;;5081078;28;20051;-73
2023/06/25 07:32:32;;;;;;;9.27;6.70;;;614.80;2432.00;;;;;;5065322;28;20035;-72
2023/06/25 07:34:58;;;;;;;14.15;7.72;;;615.00;2432.00;;;;;;5076450;28;20028;-72
2023/06/25 07:37:23;;;;;;;9.15;7.18;;;614.90;2432.00;;;;;;5083337;28;20024;-73
2023/06/25 07:39:49;;;;;;;10.65;6.45;;;615.00;2432.00;;;;;;5079378;28;20038;-76
2023/06/25 07:42:15;;;;;;;8.38;6.70;;;615.20;2432.00;;;;;;5076522;28;20035;-72
2023/06/25 07:44:41;;;;;;;12.23;7.57;;;615.30;2432.00;;;;;;5078035;28;20095;-72
2023/06/25 07:47:06;;;;;;;10.10;7.22;;;615.30;2432.00;;;;;;5078973;28;20071;-72
2023/06/25 07:49:32;;;;;;;7.95;6.43;;;615.30;2432.00;;;;;;5083805;28;20024;-72
2023/06/25 07:51:58;;;;;;;15.07;7.47;;;615.20;2432.00;;;;;;5077240;28;20052;-74
2023/06/25 07:54:23;;;;;;;12.13;7.30;;;615.20;2432.00;;;;;;5082541;28;20024;-72
2023/06/25 07:56:49;;;;;;;11.27;7.72;;;615.10;2432.00;;;;;;5079793;28;20036;-73
2023/06/25 07:59:15;;;;;;;11.45;8.60;;;615.20;2432.00;;;;;;5080776;28;20039;-73
2023/06/25 08:01:41;;;;;;;9.80;7.63;;;615.20;2432.00;;;;;;5080390;28;20040;-73
2023/06/25 08:04:07;;;;;;;12.98;8.55;;;640.10;2432.00;;;;;;5080844;28;20028;-72
2023/06/25 08:06:33;;;;;;;11.07;7.45;;;640.30;2432.00;;;;;;5078311;28;20028;-71
2023/06/25 08:08:59;;;;;;;10.75;7.85;;;640.50;2432.00;;;;;;5076657;28;20173;-75
2023/06/25 08:11:25;;;;;;;11.85;7.97;;;640.60;2432.00;;;;;;5081952;28;20040;-72
2023/06/25 08:13:50;;;;;;;12.02;8.23;;;640.60;2432.00;;;;;;5077627;28;20024;-75
2023/06/25 08:16:16;;;;;;;12.63;7.60;;;640.60;2432.00;;;;;;5076066;28;20107;-74
2023/06/25 08:18:42;;;;;;;9.55;7.65;;;640.70;2432.00;;;;;;5059011;28;20036;-73
2023/06/25 08:21:09;;;;;;;13.27;7.45;;;640.60;2432.00;;;;;;5082619;28;20390;-72
2023/06/25 08:23:34;;;;;;;11.18;7.07;;;640.70;2432.00;;;;;;5082529;28;20586;-75
2023/06/25 08:26:00;;;;;;;11.00;7.55;;;640.80;2432.00;;;;;;5084346;28;20040;-73
2023/06/25 08:28:26;;;;;;;9.82;6.63;;;640.90;2432.00;;;;;;5076322;28;20027;-73
2023/06/25 08:30:51;;;;;;;11.95;7.95;;;665.60;2432.00;;;;;;5077602;28;20047;-73
2023/06/25 08:33:17;;;;;;;8.13;6.47;;;665.80;2432.00;;;;;;5059999;28;20151;-73
2023/06/25 08:35:43;;;;;;;9.23;6.63;;;665.90;2432.00;;;;;;5084242;28;20031;-73
2023/06/25 08:38:09;;;;;;;8.85;6.22;;;665.90;2432.00;;;;;;5079054;28;20024;-72
2023/06/25 08:40:38;;;;;;;9.45;6.70;;;665.90;2432.00;;;;;;5079404;28;20037;-73
2023/06/25 08:43:04;;;;;;;8.88;6.45;;;665.90;2432.00;;;;;;5084187;28;20059;-73
2023/06/25 08:45:29;;;;;;;9.25;5.95;;;666.00;2432.00;;;;;;5088285;28;20474;-74
2023/06/25 08:47:56;;;;;;;8.00;5.88;;;666.00;2432.00;;;;;;5081429;28;20482;-72
2023/06/25 08:50:23;;;;;;;9.45;6.40;;;666.00;2432.00;;;;;;5075414;28;20104;-73
2023/06/25 08:52:50;;;;;;;9.35;7.18;;;666.00;2432.00;;;;;;5079881;28;20032;-73
2023/06/25 08:55:17;;;;;;;10.23;6.43;;;666.20;2432.00;;;;;;5080088;28;20068;-73
2023/06/25 08:57:43;;;;;;;12.68;6.65;;;666.20;2432.00;;;;;;5073133;28;20028;-72
2023/06/25 09:00:09;;;;;;;8.70;6.10;;;666.20;2432.00;;;;;;5079480;28;20031;-73
2023/06/25 09:02:35;;;;;;;8.38;5.70;;;666.50;2432.00;;;;;;5075534;28;20027;-72
2023/06/25 09:05:10;;;;;;;8.00;6.15;;;666.50;2432.00;;;;;;5076412;28;20435;-74
2023/06/25 09:07:43;;;;;;;10.07;5.97;;;691.20;2432.00;;;;;;5077323;28;20036;-78
2023/06/25 09:10:09;;;;;;;8.55;5.85;;;691.20;2432.00;;;;;;5083699;28;20184;-72
2023/06/25 09:12:35;;;;;;;10.35;6.30;;;691.20;2432.00;;;;;;5075532;28;20490;-74
2023/06/25 09:15:01;;;;;;;8.25;5.95;;;666.40;2432.00;;;;;;5075255;28;20403;-73
2023/06/25 09:17:27;;;;;;;7.70;6.07;;;666.50;2432.00;;;;;;5084789;28;20043;-73
2023/06/25 09:19:52;;;;;;;9.98;6.28;;;666.40;2432.00;;;;;;5074774;28;20099;-72
2023/06/25 09:22:18;;;;;;;8.32;6.22;;;691.20;2432.00;;;;;;5076540;28;20047;-73
2023/06/25 09:24:47;;;;;;;8.95;5.93;;;691.20;2432.00;;;;;;5076563;28;20024;-74
2023/06/25 09:27:12;;;;;;;9.35;6.38;;;691.30;2432.00;;;;;;5080482;28;20040;-73
2023/06/25 09:29:39;;;;;;;11.82;7.32;;;691.40;2432.00;;;;;;5081231;28;20116;-78
2023/06/25 09:32:09;;;;;;;9.25;6.32;;;691.60;2432.00;;;;;;5080772;28;20062;-73
2023/06/25 09:34:34;;;;;;;8.88;6.47;;;691.70;2432.00;;;;;;5082136;28;20039;-73
2023/06/25 09:37:04;;;;;;;9.07;6.53;;;691.70;2432.00;;;;;;5075904;28;20033;-73
2023/06/25 09:39:31;;;;;;;10.55;6.72;;;691.70;2432.00;;;;;;5076464;28;20024;-72
2023/06/25 09:41:57;;;;;;;9.27;7.43;;;691.70;2432.00;;;;;;5074604;28;20024;-73
2023/06/25 09:44:23;;;;;;;8.68;5.65;;;691.60;2432.00;;;;;;5077055;28;20024;-72
2023/06/25 09:46:54;;;;;;;8.23;5.93;;;691.60;2432.00;;;;;;5084387;28;20033;-73
2023/06/25 09:49:20;;;;;;;9.32;6.82;;;691.40;2432.00;;;;;;5080440;28;20035;-74
2023/06/25 09:52:11;;;;;;;8.57;6.80;;;691.40;2432.00;;;;;;5080258;28;20029;-74
2023/06/25 09:54:39;;;;;;;10.35;6.38;;;691.50;2432.00;;;;;;5085281;28;20035;-72
2023/06/25 09:57:09;;;;;;;7.88;6.20;;;691.60;2432.00;;;;;;5079108;28;20033;-74
2023/06/25 09:59:36;;;;;;;9.77;6.78;;;691.50;2432.00;;;;;;5084131;28;20753;-74
2023/06/25 10:02:05;;;;;;;8.80;5.82;;;691.50;2432.00;;;;;;5092565;28;20028;-73
2023/06/25 10:04:32;;;;;;;9.13;6.55;;;691.50;2432.00;;;;;;5084284;28;20040;-72
2023/06/25 10:06:58;;;;;;;6.25;5.30;;;691.40;2432.00;;;;;;5085378;28;20027;-73
2023/06/25 10:09:24;;;;;;;9.27;5.82;;;691.50;2432.00;;;;;;5078986;28;20116;-74
2023/06/25 10:11:50;;;;;;;9.20;5.90;;;691.50;2432.00;;;;;;5085463;28;20029;-74
2023/06/25 10:14:16;;;;;;;9.50;6.03;;;691.50;2432.00;;;;;;5079296;28;20070;-73
2023/06/25 10:16:54;;;;;;;10.00;6.97;;;691.40;2432.00;;;;;;5080951;28;20035;-73
2023/06/25 10:19:22;;;;;;;8.32;6.25;;;691.60;2432.00;;;;;;5081254;28;20134;-72
2023/06/25 10:22:08;;;;;;;7.25;6.00;;;691.60;2432.00;;;;;;5079935;28;20035;-73
2023/06/25 10:24:41;;;;;;;11.10;6.53;;;691.50;2432.00;;;;;;5084513;28;20383;-72
2023/06/25 10:27:27;;;;;;;8.75;5.60;;;691.50;2432.00;;;;;;5077707;28;20037;-73
2023/06/25 10:29:55;;;;;;;11.27;6.57;;;691.40;2432.00;;;;;;5084302;28;20046;-72
2023/06/25 10:32:21;;;;;;;7.85;6.25;;;691.50;2432.00;;;;;;5077458;28;20035;-72
2023/06/25 10:34:53;;;;;;;9.43;6.22;;;691.60;2432.00;;;;;;5085075;28;20424;-73
2023/06/25 10:37:19;;;;;;;10.45;6.22;;;691.70;2432.00;;;;;;5081765;28;20081;-73
2023/06/25 10:39:45;;;;;;;7.95;5.70;;;691.70;2432.00;;;;;;5077781;28;20028;-73
2023/06/25 10:42:13;;;;;;;9.88;5.88;;;691.80;2432.00;;;;;;5077189;28;20021;-72
2023/06/25 10:44:39;;;;;;;9.70;6.43;;;691.80;2432.00;;;;;;5079616;28;20016;-72
2023/06/25 10:47:07;;;;;;;7.32;5.97;;;691.80;2432.00;;;;;;5076109;28;20040;-72
2023/06/25 10:49:33;;;;;;;10.40;6.03;;;691.80;2432.00;;;;;;5077746;28;20027;-72
2023/06/25 10:52:00;;;;;;;6.78;5.47;;;691.80;2432.00;;;;;;5077245;28;20028;-73
2023/06/25 10:54:26;;;;;;;8.13;6.13;;;691.80;2432.00;;;;;;5077146;28;20023;-74
2023/06/25 10:57:12;;;;;;;8.48;6.20;;;691.80;2432.00;;;;;;5081517;28;20024;-74
2023/06/25 10:59:39;;;;;;;9.77;6.47;;;691.80;2432.00;;;;;;5078988;28;20024;-74
2023/06/25 11:02:16;;;;;;;11.27;5.68;;;692.00;2432.00;;;;;;5074478;28;20095;-74
2023/06/25 11:04:42;;;;;;;9.77;6.30;;;692.10;2432.00;;;;;;5068523;28;20470;-73
2023/06/25 11:07:11;;;;;;;10.77;6.43;;;717.10;2432.00;;;;;;5077291;28;20041;-73
2023/06/25 11:09:37;;;;;;;9.15;5.25;;;717.40;2432.00;;;;;;5079232;28;20462;-73
2023/06/25 11:12:06;;;;;;;11.48;6.03;;;717.40;2406.40;;;;;;5080613;28;20040;-73
2023/06/25 11:14:33;;;;;;;8.60;5.88;;;717.40;2329.60;;;;;;5073139;28;20020;-73
2023/06/25 11:16:59;;;;;;;10.18;6.07;;;717.20;2380.80;;;;;;5078510;28;20086;-73
2023/06/25 11:19:26;;;;;;;6.72;5.80;;;717.20;2432.00;;;;;;5079453;28;20650;-73
2023/06/25 11:21:52;;;;;;;8.75;6.28;;;717.10;2406.40;;;;;;5078548;28;20032;-72
2023/06/25 11:24:18;;;;;;;8.82;5.70;;;717.10;2432.00;;;;;;5079649;28;20385;-72
2023/06/25 11:26:44;;;;;;;8.60;5.70;;;717.10;2432.00;;;;;;5083603;28;20067;-73
2023/06/25 11:29:11;;;;;;;8.25;5.32;;;716.80;2432.00;;;;;;5084332;28;20029;-73
2023/06/25 11:31:52;;;;;;;8.20;6.28;;;716.80;2432.00;;;;;;5085529;28;20024;-73
2023/06/25 11:34:23;;;;;;;8.25;5.55;;;692.10;2432.00;;;;;;5085372;28;20489;-72
2023/06/25 11:36:49;;;;;;;10.05;5.30;;;692.10;2432.00;;;;;;5075669;28;20063;-74
2023/06/25 11:39:15;;;;;;;8.30;5.80;;;692.10;2432.00;;;;;;5087687;28;20443;-72
2023/06/25 11:41:45;;;;;;;8.73;5.15;;;692.10;2432.00;;;;;;5075560;28;20023;-73
2023/06/25 11:44:17;;;;;;;7.78;5.82;;;716.90;2380.80;;;;;;5089331;28;20397;-72
2023/06/25 11:46:43;;;;;;;7.07;5.43;;;717.40;2432.00;;;;;;5081829;28;20071;-73
2023/06/25 11:49:09;;;;;;;10.45;5.90;;;717.70;2278.40;;;;;;5086703;28;20398;-72
2023/06/25 11:51:34;;;;;;;6.38;5.00;;;717.70;2252.80;;;;;;5078838;28;20041;-72
2023/06/25 11:54:00;;;;;;;10.27;6.20;;;742.40;2355.20;;;;;;5080051;28;20027;-72
2023/06/25 11:56:26;;;;;;;12.52;6.07;;;717.50;2227.20;;;;;;5077201;28;20048;-73
2023/06/25 11:58:51;;;;;;;10.00;6.40;;;717.40;2380.80;;;;;;5078375;28;20550;-76
2023/06/25 12:01:18;;;;;;;7.40;5.68;;;717.00;2432.00;;;;;;5081553;28;20028;-71
2023/06/25 12:03:44;;;;;;;9.40;6.20;;;716.90;2432.00;;;;;;5068354;28;20137;-71
2023/06/25 12:06:09;;;;;;;14.43;5.95;;;716.80;2432.00;;;;;;5078916;28;20126;-73
2023/06/25 12:08:35;;;;;;;10.15;6.38;;;692.10;2432.00;;;;;;5083101;28;20032;-72
2023/06/25 12:11:01;;;;;;;9.73;6.07;;;692.10;2432.00;;;;;;5082419;28;20025;-73
2023/06/25 12:13:27;;;;;;;12.82;6.35;;;692.10;2432.00;;;;;;5085811;28;20473;-72